createdAt,value
2016-11-23T00:00:14.866Z,5.82
2016-11-23T00:01:14.330Z,5.75
2016-11-23T00:02:13.920Z,5.73
2016-11-23T00:03:13.845Z,5.82
2016-11-23T00:04:14.114Z,5.86
2016-11-23T00:05:14.765Z,5.91
2016-11-23T00:06:14.042Z,5.89
2016-11-23T00:07:14.787Z,5.9
2016-11-23T00:08:14.448Z,5.87
2016-11-23T00:09:14.402Z,5.84
2016-11-23T00:10:14.650Z,5.84
2016-11-23T00:11:14.846Z,5.76
2016-11-23T00:12:13.877Z,5.72
2016-11-23T00:13:14.880Z,5.65
2016-11-23T00:14:14.666Z,5.62
2016-11-23T00:15:14.022Z,5.57
2016-11-23T00:16:14.151Z,5.48
2016-11-23T00:17:13.949Z,5.44
2016-11-23T00:18:15.030Z,5.48
2016-11-23T00:19:14.044Z,5.39
2016-11-23T00:20:14.465Z,5.33
2016-11-23T00:21:15.494Z,5.44
2016-11-23T00:22:15.344Z,5.54
2016-11-23T00:23:14.340Z,5.64
2016-11-23T00:24:14.420Z,5.56
2016-11-23T00:25:14.359Z,5.53
2016-11-23T00:26:14.453Z,5.48
2016-11-23T00:27:13.958Z,5.46
2016-11-23T00:28:14.700Z,5.51
2016-11-23T00:29:14.596Z,5.51
2016-11-23T00:30:14.864Z,5.61
2016-11-23T00:31:14.988Z,5.64
2016-11-23T00:32:14.482Z,5.57
2016-11-23T00:33:14.671Z,5.57
2016-11-23T00:34:14.929Z,5.65
2016-11-23T00:35:14.920Z,5.61
2016-11-23T00:36:14.850Z,5.61
2016-11-23T00:37:15.646Z,5.68
2016-11-23T00:38:14.863Z,5.73
2016-11-23T00:39:15.062Z,5.76
2016-11-23T00:40:15.037Z,5.69
2016-11-23T00:41:15.285Z,5.72
2016-11-23T00:42:14.476Z,5.73
2016-11-23T00:43:15.375Z,5.72
2016-11-23T00:44:15.330Z,5.73
2016-11-23T00:45:14.868Z,5.76
2016-11-23T00:46:14.984Z,5.73
2016-11-23T00:47:14.794Z,5.83
2016-11-23T00:48:15.531Z,5.89
2016-11-23T00:49:15.292Z,5.86
2016-11-23T00:50:15.131Z,5.91
2016-11-23T00:51:15.627Z,5.94
2016-11-23T00:52:15.118Z,5.94
2016-11-23T00:53:15.180Z,6.11
2016-11-23T00:54:15.284Z,6.08
2016-11-23T00:55:15.697Z,6.08
2016-11-23T00:56:14.811Z,6.16
2016-11-23T00:57:14.998Z,6.07
2016-11-23T00:58:16.269Z,6.17
2016-11-23T00:59:15.002Z,6.16
2016-11-23T01:00:15.005Z,6.14
2016-11-23T01:01:15.093Z,6.24
2016-11-23T01:02:15.134Z,6.24
2016-11-23T01:03:15.637Z,6.28
2016-11-23T01:04:15.469Z,6.24
2016-11-23T01:05:15.147Z,6.26
2016-11-23T01:06:15.086Z,6.28
2016-11-23T01:07:15.541Z,6.26
2016-11-23T01:08:15.076Z,6.31
2016-11-23T01:09:15.657Z,6.28
2016-11-23T01:10:14.923Z,6.31
2016-11-23T01:11:15.894Z,6.35
2016-11-23T01:12:15.682Z,6.35
2016-11-23T01:13:15.735Z,6.28
2016-11-23T01:14:15.068Z,6.28
2016-11-23T01:15:15.590Z,6.38
2016-11-23T01:16:15.473Z,6.31
2016-11-23T01:17:15.606Z,6.31
2016-11-23T01:18:15.042Z,6.39
2016-11-23T01:19:16.005Z,6.44
2016-11-23T01:20:16.061Z,6.35
2016-11-23T01:21:15.292Z,6.31
2016-11-23T01:22:15.458Z,6.31
2016-11-23T01:23:15.618Z,6.41
2016-11-23T01:24:15.437Z,6.39
2016-11-23T01:25:15.162Z,6.36
2016-11-23T01:26:15.583Z,6.33
2016-11-23T01:27:16.070Z,6.41
2016-11-23T01:28:15.420Z,6.41
2016-11-23T01:29:16.378Z,6.36
2016-11-23T01:30:15.712Z,6.48
2016-11-23T01:31:16.515Z,6.56
2016-11-23T01:32:15.727Z,6.59
2016-11-23T01:33:15.279Z,6.54
2016-11-23T01:34:15.935Z,6.59
2016-11-23T01:35:16.003Z,6.59
2016-11-23T01:36:15.389Z,6.6
2016-11-23T01:37:16.064Z,6.56
2016-11-23T01:38:15.533Z,6.48
2016-11-23T01:39:15.427Z,6.59
2016-11-23T01:40:16.337Z,6.6
2016-11-23T01:41:15.204Z,6.44
2016-11-23T01:42:16.122Z,6.54
2016-11-23T01:43:15.362Z,6.49
2016-11-23T01:44:16.233Z,6.46
2016-11-23T01:45:16.138Z,6.45
2016-11-23T01:46:16.282Z,6.44
2016-11-23T01:47:15.515Z,6.54
2016-11-23T01:48:15.555Z,6.49
2016-11-23T01:49:16.494Z,6.46
2016-11-23T01:50:16.093Z,6.59
2016-11-23T01:51:16.365Z,6.67
2016-11-23T01:52:16.739Z,6.66
2016-11-23T01:53:15.641Z,6.66
2016-11-23T01:54:15.559Z,6.6
2016-11-23T01:55:16.307Z,6.64
2016-11-23T01:56:16.815Z,6.59
2016-11-23T01:57:15.494Z,6.59
2016-11-23T01:58:16.488Z,6.6
2016-11-23T01:59:15.764Z,6.57
2016-11-23T02:00:15.979Z,6.48
2016-11-23T02:01:16.062Z,6.48
2016-11-23T02:02:16.219Z,6.41
2016-11-23T02:03:16.207Z,6.41
2016-11-23T02:04:16.168Z,6.39
2016-11-23T02:05:15.825Z,6.35
2016-11-23T02:06:16.100Z,6.31
2016-11-23T02:07:15.900Z,6.33
2016-11-23T02:08:16.165Z,6.36
2016-11-23T02:09:16.422Z,6.46
2016-11-23T02:10:16.268Z,6.46
2016-11-23T02:11:15.663Z,6.39
2016-11-23T02:12:15.502Z,6.45
2016-11-23T02:13:15.837Z,6.44
2016-11-23T02:14:16.061Z,6.41
2016-11-23T02:15:16.323Z,6.39
2016-11-23T02:16:16.602Z,6.35
2016-11-23T02:17:17.248Z,6.28
2016-11-23T02:18:16.590Z,6.24
2016-11-23T02:19:16.303Z,6.31
2016-11-23T02:20:16.196Z,6.38
2016-11-23T02:21:16.191Z,6.28
2016-11-23T02:22:16.166Z,6.38
2016-11-23T02:23:16.530Z,6.31
2016-11-23T02:24:16.714Z,6.36
2016-11-23T02:25:15.673Z,6.39
2016-11-23T02:26:16.141Z,6.41
2016-11-23T02:27:17.281Z,6.49
2016-11-23T02:28:16.717Z,6.51
2016-11-23T02:29:16.358Z,6.51
2016-11-23T02:30:16.061Z,6.49
2016-11-23T02:31:16.152Z,6.49
2016-11-23T02:32:16.455Z,6.51
2016-11-23T02:33:17.415Z,6.48
2016-11-23T02:34:17.197Z,6.52
2016-11-23T02:35:17.084Z,6.46
2016-11-23T02:36:16.398Z,6.49
2016-11-23T02:37:16.242Z,6.51
2016-11-23T02:38:16.416Z,6.56
2016-11-23T02:39:16.784Z,6.54
2016-11-23T02:40:17.099Z,6.62
2016-11-23T02:41:17.524Z,6.63
2016-11-23T02:42:16.577Z,6.54
2016-11-23T02:43:17.173Z,6.6
2016-11-23T02:44:17.161Z,6.6
2016-11-23T02:45:17.270Z,6.59
2016-11-23T02:46:17.079Z,6.59
2016-11-23T02:47:16.892Z,6.48
2016-11-23T02:48:16.700Z,6.57
2016-11-23T02:49:16.723Z,6.64
2016-11-23T02:50:17.472Z,6.66
2016-11-23T02:51:17.169Z,6.64
2016-11-23T02:52:17.015Z,6.6
2016-11-23T02:53:17.456Z,6.69
2016-11-23T02:54:17.377Z,6.67
2016-11-23T02:55:17.481Z,6.64
2016-11-23T02:56:17.443Z,6.62
2016-11-23T02:57:16.674Z,6.63
2016-11-23T02:58:17.132Z,6.62
2016-11-23T02:59:16.456Z,6.62
2016-11-23T03:00:16.793Z,6.52
2016-11-23T03:01:17.556Z,6.6
2016-11-23T03:02:17.209Z,6.63
2016-11-23T03:03:18.086Z,6.64
2016-11-23T03:04:17.725Z,6.62
2016-11-23T03:05:17.879Z,6.59
2016-11-23T03:06:17.085Z,6.57
2016-11-23T03:07:17.080Z,6.59
2016-11-23T03:08:16.954Z,6.48
2016-11-23T03:09:16.799Z,6.52
2016-11-23T03:10:17.478Z,6.44
2016-11-23T03:11:16.757Z,6.51
2016-11-23T03:12:17.619Z,6.41
2016-11-23T03:13:17.736Z,6.44
2016-11-23T03:14:16.950Z,6.45
2016-11-23T03:15:17.258Z,6.38
2016-11-23T03:16:17.444Z,6.48
2016-11-23T03:17:17.318Z,6.42
2016-11-23T03:18:17.755Z,6.41
2016-11-23T03:19:17.736Z,6.48
2016-11-23T03:20:17.408Z,6.64
2016-11-23T03:21:17.196Z,6.64
2016-11-23T03:22:17.491Z,6.66
2016-11-23T03:23:17.560Z,6.7
2016-11-23T03:24:18.060Z,6.69
2016-11-23T03:25:18.129Z,6.69
2016-11-23T03:26:17.090Z,6.63
2016-11-23T03:27:16.923Z,6.66
2016-11-23T03:28:17.228Z,6.64
2016-11-23T03:29:17.364Z,6.69
2016-11-23T03:30:17.627Z,6.7
2016-11-23T03:31:17.660Z,6.66
2016-11-23T03:32:17.872Z,6.6
2016-11-23T03:33:17.862Z,6.56
2016-11-23T03:34:17.603Z,6.51
2016-11-23T03:35:17.593Z,6.48
2016-11-23T03:36:17.278Z,6.48
2016-11-23T03:37:17.672Z,6.49
2016-11-23T03:38:17.924Z,6.57
2016-11-23T03:39:17.764Z,6.52
2016-11-23T03:40:17.642Z,6.52
2016-11-23T03:41:18.063Z,6.59
2016-11-23T03:42:18.636Z,6.59
2016-11-23T03:43:18.284Z,6.69
2016-11-23T03:44:17.855Z,6.72
2016-11-23T03:45:17.447Z,6.79
2016-11-23T03:46:18.069Z,6.84
2016-11-23T03:47:17.457Z,6.88
2016-11-23T03:48:17.934Z,6.88
2016-11-23T03:49:17.864Z,6.88
2016-11-23T03:50:18.215Z,6.92
2016-11-23T03:51:21.034Z,6.99
2016-11-23T03:52:17.718Z,6.97
2016-11-23T03:53:18.108Z,7.02
2016-11-23T03:54:18.232Z,6.88
2016-11-23T03:55:17.479Z,6.85
2016-11-23T03:56:18.180Z,6.92
2016-11-23T03:57:17.642Z,7.05
2016-11-23T03:58:17.567Z,6.97
2016-11-23T03:59:17.968Z,6.96
2016-11-23T04:00:18.711Z,6.89
2016-11-23T04:01:19.317Z,6.88
2016-11-23T04:02:17.846Z,6.88
2016-11-23T04:03:18.135Z,6.85
2016-11-23T04:04:18.379Z,6.75
2016-11-23T04:05:18.060Z,6.72
2016-11-23T04:06:18.648Z,6.64
2016-11-23T04:07:17.838Z,6.54
2016-11-23T04:08:17.666Z,6.59
2016-11-23T04:09:17.847Z,6.56
2016-11-23T04:10:17.936Z,6.54
2016-11-23T04:11:18.432Z,6.45
2016-11-23T04:12:18.228Z,6.48
2016-11-23T04:13:17.928Z,6.36
2016-11-23T04:14:18.058Z,6.41
2016-11-23T04:15:18.837Z,6.33
2016-11-23T04:16:18.610Z,6.31
2016-11-23T04:17:18.992Z,6.26
2016-11-23T04:18:17.918Z,6.2
2016-11-23T04:19:19.802Z,6.2
2016-11-23T04:20:18.080Z,6.14
2016-11-23T04:21:18.115Z,6.16
2016-11-23T04:22:18.313Z,6.11
2016-11-23T04:23:18.311Z,6.2
2016-11-23T04:24:18.622Z,6.26
2016-11-23T04:25:18.671Z,6.12
2016-11-23T04:26:18.018Z,6.16
2016-11-23T04:27:18.097Z,6.12
2016-11-23T04:28:18.864Z,6.27
2016-11-23T04:29:18.855Z,6.2
2016-11-23T04:30:18.210Z,6.09
2016-11-23T04:31:18.085Z,6.14
2016-11-23T04:32:18.775Z,6.05
2016-11-23T04:33:18.421Z,6.04
2016-11-23T04:34:19.530Z,6.08
2016-11-23T04:35:18.583Z,6.12
2016-11-23T04:36:18.943Z,6.07
2016-11-23T04:37:17.857Z,5.98
2016-11-23T04:38:18.532Z,5.99
2016-11-23T04:39:19.358Z,5.99
2016-11-23T04:40:18.687Z,5.97
2016-11-23T04:41:18.578Z,5.98
2016-11-23T04:42:18.849Z,5.98
2016-11-23T04:43:18.913Z,5.89
2016-11-23T04:44:19.125Z,5.84
2016-11-23T04:45:18.116Z,5.79
2016-11-23T04:46:18.341Z,5.71
2016-11-23T04:47:18.447Z,5.72
2016-11-23T04:48:18.458Z,5.62
2016-11-23T04:49:18.939Z,5.64
2016-11-23T04:50:19.097Z,5.47
2016-11-23T04:51:19.248Z,5.5
2016-11-23T04:52:18.955Z,5.47
2016-11-23T04:53:18.293Z,5.46
2016-11-23T04:54:18.525Z,5.41
2016-11-23T04:55:19.372Z,5.32
2016-11-23T04:56:19.001Z,5.28
2016-11-23T04:57:18.557Z,5.23
2016-11-23T04:58:20.456Z,5.17
2016-11-23T04:59:18.854Z,5.12
2016-11-23T05:00:18.534Z,5.3
2016-11-23T05:01:18.776Z,5.32
2016-11-23T05:02:18.623Z,5.36
2016-11-23T05:03:18.765Z,5.44
2016-11-23T05:04:18.697Z,5.35
2016-11-23T05:05:19.050Z,5.29
2016-11-23T05:06:19.085Z,5.39
2016-11-23T05:07:18.672Z,5.29
2016-11-23T05:08:18.546Z,5.36
2016-11-23T05:09:19.393Z,5.32
2016-11-23T05:10:18.912Z,5.26
2016-11-23T05:11:18.767Z,5.26
2016-11-23T05:12:19.211Z,5.32
2016-11-23T05:13:19.008Z,5.36
2016-11-23T05:14:19.074Z,5.26
2016-11-23T05:15:18.513Z,5.32
2016-11-23T05:17:19.638Z,5.32
2016-11-23T05:18:20.746Z,5.38
2016-11-23T05:19:18.685Z,5.33
2016-11-23T05:20:18.960Z,5.33
2016-11-23T05:21:20.253Z,5.23
2016-11-23T05:22:19.565Z,5.33
2016-11-23T05:23:18.995Z,5.33
2016-11-23T05:24:19.480Z,5.2
2016-11-23T05:25:20.160Z,5.1
2016-11-23T05:26:20.196Z,5.1
2016-11-23T05:27:19.893Z,5.1
2016-11-23T05:28:20.419Z,5.08
2016-11-23T05:29:20.440Z,5.1
2016-11-23T05:30:20.540Z,4.99
2016-11-23T05:31:19.554Z,5
2016-11-23T05:32:21.006Z,4.96
2016-11-23T05:33:20.602Z,5.17
2016-11-23T05:34:19.525Z,5.11
2016-11-23T05:35:19.596Z,5.23
2016-11-23T05:36:20.370Z,5.3
2016-11-23T05:37:21.231Z,5.29
2016-11-23T05:38:19.589Z,5.3
2016-11-23T05:39:19.889Z,5.32
2016-11-23T05:40:21.555Z,5.33
2016-11-23T05:41:20.491Z,5.3
2016-11-23T05:42:19.404Z,5.3
2016-11-23T05:43:19.947Z,5.33
2016-11-23T05:44:20.481Z,5.26
2016-11-23T05:45:19.180Z,5.23
2016-11-23T05:46:20.004Z,5.32
2016-11-23T05:47:20.424Z,5.32
2016-11-23T05:48:21.403Z,5.26
2016-11-23T05:49:19.310Z,5.3
2016-11-23T05:50:20.031Z,5.3
2016-11-23T05:51:20.923Z,5.26
2016-11-23T05:52:21.731Z,5.29
2016-11-23T05:53:19.989Z,5.28
2016-11-23T05:54:19.388Z,5.2
2016-11-23T05:55:20.607Z,5.17
2016-11-23T05:56:20.640Z,5.2
2016-11-23T05:57:21.543Z,5.14
2016-11-23T05:58:19.817Z,5.11
2016-11-23T05:59:20.505Z,5.05
2016-11-23T06:00:20.171Z,5.07
2016-11-23T06:01:20.684Z,4.86
2016-11-23T06:02:21.055Z,4.92
2016-11-23T06:03:21.012Z,4.87
2016-11-23T06:04:20.366Z,4.8
2016-11-23T06:05:20.290Z,4.7
2016-11-23T06:06:20.731Z,4.68
2016-11-23T06:07:20.229Z,4.71
2016-11-23T06:08:21.124Z,4.63
2016-11-23T06:09:19.506Z,4.6
2016-11-23T06:10:19.656Z,4.49
2016-11-23T06:11:20.441Z,4.45
2016-11-23T06:12:20.532Z,4.6
2016-11-23T06:13:21.719Z,4.73
2016-11-23T06:14:20.554Z,4.8
2016-11-23T06:15:20.727Z,4.73
2016-11-23T06:16:21.545Z,4.67
2016-11-23T06:17:20.257Z,4.66
2016-11-23T06:18:20.521Z,4.6
2016-11-23T06:19:21.006Z,4.63
2016-11-23T06:20:22.157Z,4.59
2016-11-23T06:21:20.238Z,4.55
2016-11-23T06:22:20.966Z,4.66
2016-11-23T06:23:21.044Z,4.66
2016-11-23T06:24:20.566Z,4.58
2016-11-23T06:25:20.839Z,4.56
2016-11-23T06:26:20.519Z,4.6
2016-11-23T06:27:21.962Z,4.75
2016-11-23T06:28:20.953Z,4.7
2016-11-23T06:29:20.954Z,4.71
2016-11-23T06:30:20.860Z,4.77
2016-11-23T06:31:21.682Z,4.7
2016-11-23T06:32:20.686Z,4.84
2016-11-23T06:33:20.371Z,4.86
2016-11-23T06:34:21.320Z,4.86
2016-11-23T06:35:20.432Z,4.82
2016-11-23T06:36:20.464Z,4.74
2016-11-23T06:37:20.800Z,4.71
2016-11-23T06:38:22.192Z,4.68
2016-11-23T06:39:21.933Z,4.7
2016-11-23T06:40:20.689Z,4.59
2016-11-23T06:41:21.469Z,4.63
2016-11-23T06:42:21.467Z,4.59
2016-11-23T06:43:20.701Z,4.49
2016-11-23T06:44:20.659Z,4.49
2016-11-23T06:45:20.615Z,4.5
2016-11-23T06:46:22.420Z,4.5
2016-11-23T06:47:20.929Z,4.42
2016-11-23T06:48:20.860Z,4.41
2016-11-23T06:49:21.718Z,4.42
2016-11-23T06:50:21.165Z,4.49
2016-11-23T06:51:21.300Z,4.37
2016-11-23T06:52:20.860Z,4.38
2016-11-23T06:53:21.264Z,4.45
2016-11-23T06:54:20.514Z,4.44
2016-11-23T06:55:20.578Z,4.5
2016-11-23T06:56:21.303Z,4.59
2016-11-23T06:57:21.089Z,4.63
2016-11-23T06:58:20.959Z,4.59
2016-11-23T06:59:20.968Z,4.67
2016-11-23T07:00:21.524Z,4.62
2016-11-23T07:01:22.892Z,4.66
2016-11-23T07:02:20.879Z,4.59
2016-11-23T07:03:20.555Z,4.63
2016-11-23T07:04:21.554Z,4.62
2016-11-23T07:05:20.825Z,4.59
2016-11-23T07:06:20.577Z,4.53
2016-11-23T07:07:20.631Z,4.56
2016-11-23T07:08:23.891Z,4.35
2016-11-23T07:09:21.412Z,4.52
2016-11-23T07:10:21.548Z,4.5
2016-11-23T07:11:20.525Z,4.42
2016-11-23T07:12:21.296Z,4.52
2016-11-23T07:13:21.026Z,4.52
2016-11-23T07:14:20.523Z,4.41
2016-11-23T07:15:21.312Z,4.42
2016-11-23T07:16:20.295Z,4.48
2016-11-23T07:17:20.966Z,4.41
2016-11-23T07:18:21.990Z,4.41
2016-11-23T07:19:21.211Z,4.45
2016-11-23T07:20:21.773Z,4.49
2016-11-23T07:21:21.201Z,4.4
2016-11-23T07:22:21.021Z,4.52
2016-11-23T07:23:21.861Z,4.48
2016-11-23T07:24:21.379Z,4.41
2016-11-23T07:25:21.164Z,4.45
2016-11-23T07:26:21.179Z,4.49
2016-11-23T07:27:21.714Z,4.42
2016-11-23T07:28:21.325Z,4.53
2016-11-23T07:29:20.882Z,4.66
2016-11-23T07:30:21.161Z,4.55
2016-11-23T07:31:21.422Z,4.55
2016-11-23T07:32:21.047Z,4.59
2016-11-23T07:33:20.974Z,4.67
2016-11-23T07:34:21.604Z,4.67
2016-11-23T07:35:22.480Z,4.84
2016-11-23T07:36:21.915Z,4.8
2016-11-23T07:37:21.625Z,4.87
2016-11-23T07:38:21.780Z,4.89
2016-11-23T07:39:22.173Z,4.96
2016-11-23T07:40:21.099Z,5.04
2016-11-23T07:41:21.275Z,5
2016-11-23T07:42:21.274Z,5.02
2016-11-23T07:43:22.448Z,5.07
2016-11-23T07:44:21.213Z,5.11
2016-11-23T07:45:22.158Z,5.12
2016-11-23T07:46:21.136Z,5.15
2016-11-23T07:47:21.123Z,5.17
2016-11-23T07:48:21.961Z,5.23
2016-11-23T07:49:21.301Z,5.29
2016-11-23T07:50:22.098Z,5.26
2016-11-23T07:51:21.931Z,5.33
2016-11-23T07:52:21.017Z,5.41
2016-11-23T07:53:21.480Z,5.38
2016-11-23T07:54:22.606Z,5.46
2016-11-23T07:55:22.822Z,5.47
2016-11-23T07:56:21.714Z,5.64
2016-11-23T07:57:22.146Z,5.56
2016-11-23T07:58:22.034Z,5.59
2016-11-23T07:59:22.314Z,5.68
2016-11-23T08:00:21.841Z,5.76
2016-11-23T08:01:21.906Z,5.65
2016-11-23T08:02:23.073Z,5.73
2016-11-23T08:03:21.942Z,5.84
2016-11-23T08:04:21.482Z,5.87
2016-11-23T08:05:21.852Z,5.9
2016-11-23T08:06:22.135Z,5.94
2016-11-23T08:07:21.015Z,5.94
2016-11-23T08:08:22.085Z,6.05
2016-11-23T08:09:21.533Z,5.98
2016-11-23T08:10:22.491Z,5.99
2016-11-23T08:11:21.586Z,6.04
2016-11-23T08:12:21.842Z,6.07
2016-11-23T08:13:22.244Z,6.14
2016-11-23T08:14:22.339Z,6.16
2016-11-23T08:15:22.451Z,6.12
2016-11-23T08:16:22.262Z,6.22
2016-11-23T08:17:22.687Z,6.2
2016-11-23T08:18:21.541Z,6.2
2016-11-23T08:19:21.779Z,6.3
2016-11-23T08:20:22.382Z,6.22
2016-11-23T08:21:21.624Z,6.28
2016-11-23T08:22:21.922Z,6.27
2016-11-23T08:23:21.936Z,6.3
2016-11-23T08:24:22.441Z,6.31
2016-11-23T08:25:22.328Z,6.36
2016-11-23T08:26:21.920Z,6.31
2016-11-23T08:27:22.051Z,6.44
2016-11-23T08:28:21.913Z,6.49
2016-11-23T08:29:23.633Z,6.59
2016-11-23T08:30:21.961Z,6.59
2016-11-23T08:31:22.115Z,6.56
2016-11-23T08:32:23.170Z,6.57
2016-11-23T08:33:22.131Z,6.51
2016-11-23T08:34:21.819Z,6.66
2016-11-23T08:35:22.334Z,6.64
2016-11-23T08:36:23.583Z,6.56
2016-11-23T08:37:21.450Z,6.69
2016-11-23T08:38:22.600Z,6.64
2016-11-23T08:39:22.622Z,6.63
2016-11-23T08:40:22.580Z,6.63
2016-11-23T08:41:22.486Z,6.72
2016-11-23T08:42:22.548Z,6.7
2016-11-23T08:43:22.713Z,6.72
2016-11-23T08:44:22.433Z,6.87
2016-11-23T08:45:22.007Z,6.75
2016-11-23T08:46:22.255Z,6.85
2016-11-23T08:47:23.172Z,6.7
2016-11-23T08:48:22.594Z,6.69
2016-11-23T08:49:22.343Z,6.7
2016-11-23T08:50:22.395Z,6.63
2016-11-23T08:51:22.489Z,6.74
2016-11-23T08:52:23.236Z,6.7
2016-11-23T08:53:22.283Z,6.69
2016-11-23T08:54:22.583Z,6.79
2016-11-23T08:55:22.385Z,6.75
2016-11-23T08:56:22.090Z,6.62
2016-11-23T08:57:22.929Z,6.69
2016-11-23T08:58:22.176Z,6.63
2016-11-23T08:59:23.588Z,6.7
2016-11-23T09:00:22.788Z,6.69
2016-11-23T09:01:22.586Z,6.67
2016-11-23T09:02:22.885Z,6.72
2016-11-23T09:03:24.153Z,6.72
2016-11-23T09:04:22.297Z,6.77
2016-11-23T09:05:22.908Z,6.81
2016-11-23T09:06:23.887Z,6.74
2016-11-23T09:07:22.881Z,6.84
2016-11-23T09:08:22.106Z,6.74
2016-11-23T09:09:22.759Z,6.79
2016-11-23T09:10:23.396Z,6.82
2016-11-23T09:11:21.880Z,6.89
2016-11-23T09:12:22.426Z,6.87
2016-11-23T09:13:22.767Z,6.84
2016-11-23T09:14:23.694Z,6.89
2016-11-23T09:15:23.368Z,6.93
2016-11-23T09:16:22.399Z,6.93
2016-11-23T09:17:22.782Z,6.93
2016-11-23T09:18:23.754Z,6.92
2016-11-23T09:19:22.556Z,6.87
2016-11-23T09:20:23.682Z,6.87
2016-11-23T09:21:23.100Z,6.96
2016-11-23T09:22:24.162Z,6.95
2016-11-23T09:23:22.541Z,7.03
2016-11-23T09:24:22.780Z,7.03
2016-11-23T09:25:23.247Z,7.07
2016-11-23T09:26:22.521Z,7.17
2016-11-23T09:27:22.898Z,7.14
2016-11-23T09:28:22.824Z,7.2
2016-11-23T09:29:23.893Z,7.18
2016-11-23T09:30:24.206Z,7.35
2016-11-23T09:31:22.236Z,7.25
2016-11-23T09:32:23.809Z,7.33
2016-11-23T09:33:22.926Z,7.31
2016-11-23T09:34:22.615Z,7.35
2016-11-23T09:35:23.922Z,7.36
2016-11-23T09:36:22.980Z,7.32
2016-11-23T09:37:24.065Z,7.32
2016-11-23T09:38:22.998Z,7.39
2016-11-23T09:39:23.709Z,7.32
2016-11-23T09:40:22.542Z,7.4
2016-11-23T09:41:24.167Z,7.38
2016-11-23T09:42:23.608Z,7.48
2016-11-23T09:43:22.815Z,7.51
2016-11-23T09:44:23.599Z,7.61
2016-11-23T09:45:23.730Z,7.61
2016-11-23T09:46:22.920Z,7.63
2016-11-23T09:47:23.448Z,7.75
2016-11-23T09:48:23.328Z,7.72
2016-11-23T09:49:24.466Z,7.82
2016-11-23T09:50:22.677Z,7.8
2016-11-23T09:51:23.111Z,7.9
2016-11-23T09:52:23.793Z,7.97
2016-11-23T09:53:23.823Z,8.08
2016-11-23T09:54:23.550Z,8.13
2016-11-23T09:55:24.166Z,8.13
2016-11-23T09:56:24.913Z,8.19
2016-11-23T09:57:23.488Z,8.3
2016-11-23T09:58:23.744Z,8.38
2016-11-23T09:59:23.775Z,8.37
2016-11-23T10:00:24.343Z,8.33
2016-11-23T10:01:23.530Z,8.53
2016-11-23T10:02:24.756Z,8.53
2016-11-23T10:03:23.899Z,8.49
2016-11-23T10:04:24.473Z,8.52
2016-11-23T10:05:23.383Z,8.48
2016-11-23T10:06:23.066Z,8.48
2016-11-23T10:07:22.983Z,8.6
2016-11-23T10:08:23.861Z,8.56
2016-11-23T10:09:23.146Z,8.6
2016-11-23T10:10:24.117Z,8.6
2016-11-23T10:11:23.896Z,8.55
2016-11-23T10:12:24.409Z,8.63
2016-11-23T10:13:22.984Z,8.67
2016-11-23T10:14:23.272Z,8.67
2016-11-23T10:15:24.161Z,8.79
2016-11-23T10:16:25.067Z,8.82
2016-11-23T10:17:23.590Z,8.85
2016-11-23T10:18:24.020Z,8.89
2016-11-23T10:19:24.699Z,8.88
2016-11-23T10:20:23.575Z,9
2016-11-23T10:21:24.129Z,9
2016-11-23T10:22:23.902Z,9.06
2016-11-23T10:23:24.206Z,9.08
2016-11-23T10:24:23.382Z,9
2016-11-23T10:25:23.768Z,8.97
2016-11-23T10:26:24.170Z,9.13
2016-11-23T10:27:23.384Z,9.26
2016-11-23T10:28:23.800Z,9.31
2016-11-23T10:29:24.343Z,9.31
2016-11-23T10:30:24.748Z,9.47
2016-11-23T10:31:25.024Z,9.44
2016-11-23T10:32:23.467Z,9.44
2016-11-23T10:33:23.887Z,9.44
2016-11-23T10:34:25.483Z,9.54
2016-11-23T10:35:24.048Z,9.59
2016-11-23T10:36:24.081Z,9.65
2016-11-23T10:37:24.497Z,9.61
2016-11-23T10:38:24.495Z,9.55
2016-11-23T10:39:25.449Z,9.73
2016-11-23T10:40:24.112Z,9.64
2016-11-23T10:41:23.513Z,9.62
2016-11-23T10:42:23.898Z,9.73
2016-11-23T10:43:23.882Z,9.82
2016-11-23T10:44:24.573Z,9.73
2016-11-23T10:45:24.299Z,9.73
2016-11-23T10:46:24.279Z,9.8
2016-11-23T10:47:25.038Z,9.92
2016-11-23T10:48:24.597Z,9.99
2016-11-23T10:49:24.937Z,10.23
2016-11-23T10:50:25.766Z,10.26
2016-11-23T10:51:24.381Z,10.23
2016-11-23T10:52:24.331Z,10.25
2016-11-23T10:53:25.172Z,10.16
2016-11-23T10:54:24.877Z,10.16
2016-11-23T10:55:24.278Z,10.26
2016-11-23T10:56:24.570Z,10.4
2016-11-23T10:57:25.087Z,10.48
2016-11-23T10:58:24.149Z,10.48
2016-11-23T10:59:25.205Z,10.44
2016-11-23T11:00:24.539Z,10.53
2016-11-23T11:01:23.901Z,10.57
2016-11-23T11:02:25.241Z,10.56
2016-11-23T11:03:24.837Z,10.61
2016-11-23T11:04:25.458Z,10.63
2016-11-23T11:05:24.621Z,10.64
2016-11-23T11:06:24.254Z,10.78
2016-11-23T11:07:24.330Z,10.78
2016-11-23T11:08:24.707Z,10.75
2016-11-23T11:09:25.329Z,10.74
2016-11-23T11:10:24.627Z,10.76
2016-11-23T11:11:24.924Z,10.94
2016-11-23T11:12:24.659Z,10.93
2016-11-23T11:13:25.099Z,10.97
2016-11-23T11:14:24.278Z,10.89
2016-11-23T11:15:24.793Z,11.02
2016-11-23T11:16:25.711Z,11.02
2016-11-23T11:17:25.328Z,11.14
2016-11-23T11:18:24.921Z,11.07
2016-11-23T11:19:24.764Z,11.1
2016-11-23T11:20:25.734Z,11.14
2016-11-23T11:21:24.745Z,11.23
2016-11-23T11:22:25.156Z,11.17
2016-11-23T11:23:25.838Z,11.33
2016-11-23T11:24:25.844Z,11.65
2016-11-23T11:25:25.020Z,11.77
2016-11-23T11:26:24.850Z,11.73
2016-11-23T11:27:25.513Z,11.6
2016-11-23T11:28:26.174Z,11.65
2016-11-23T11:29:24.780Z,11.75
2016-11-23T11:30:25.087Z,11.73
2016-11-23T11:31:25.893Z,11.88
2016-11-23T11:32:26.059Z,11.88
2016-11-23T11:33:25.047Z,11.95
2016-11-23T11:34:25.185Z,12.02
2016-11-23T11:35:25.425Z,12.06
2016-11-23T11:36:25.939Z,12.04
2016-11-23T11:37:25.169Z,11.97
2016-11-23T11:38:25.699Z,11.97
2016-11-23T11:39:26.258Z,11.8
2016-11-23T11:40:24.636Z,11.81
2016-11-23T11:41:25.560Z,11.94
2016-11-23T11:42:25.315Z,11.97
2016-11-23T11:43:26.560Z,11.91
2016-11-23T11:44:26.775Z,12
2016-11-23T11:45:25.369Z,12
2016-11-23T11:46:26.054Z,12.04
2016-11-23T11:47:26.243Z,12.09
2016-11-23T11:48:25.833Z,12.21
2016-11-23T11:49:25.111Z,12.15
2016-11-23T11:50:26.297Z,12.24
2016-11-23T11:51:25.045Z,12.09
2016-11-23T11:52:25.529Z,12
2016-11-23T11:53:26.217Z,12.06
2016-11-23T11:54:27.299Z,12.27
2016-11-23T11:55:26.747Z,12.35
2016-11-23T11:56:25.695Z,12.42
2016-11-23T11:57:25.995Z,12.37
2016-11-23T11:58:27.049Z,12.39
2016-11-23T11:59:27.161Z,12.64
2016-11-23T12:00:27.067Z,12.72
2016-11-23T12:01:25.433Z,12.49
2016-11-23T12:02:25.523Z,12.39
2016-11-23T12:03:26.452Z,12.29
2016-11-23T12:04:25.601Z,12.28
2016-11-23T12:05:25.834Z,12.5
2016-11-23T12:06:26.758Z,12.5
2016-11-23T12:07:26.362Z,12.47
2016-11-23T12:08:25.792Z,12.46
2016-11-23T12:09:26.299Z,12.46
2016-11-23T12:10:27.216Z,12.37
2016-11-23T12:11:27.470Z,12.39
2016-11-23T12:12:26.076Z,12.37
2016-11-23T12:13:26.483Z,12.46
2016-11-23T12:14:25.910Z,12.61
2016-11-23T12:15:26.123Z,12.87
2016-11-23T12:16:26.050Z,13.25
2016-11-23T12:17:26.614Z,13.19
2016-11-23T12:18:25.598Z,13.35
2016-11-23T12:19:26.261Z,13.35
2016-11-23T12:20:26.159Z,13.41
2016-11-23T12:21:26.997Z,13.49
2016-11-23T12:22:26.459Z,13.44
2016-11-23T12:23:27.083Z,13.23
2016-11-23T12:24:26.054Z,13.31
2016-11-23T12:25:26.886Z,13.35
2016-11-23T12:26:27.428Z,13.46
2016-11-23T12:27:27.383Z,13.59
2016-11-23T12:28:26.867Z,13.67
2016-11-23T12:29:27.044Z,13.41
2016-11-23T12:30:28.035Z,13.44
2016-11-23T12:31:26.628Z,13.56
2016-11-23T12:32:26.427Z,13.72
2016-11-23T12:33:26.696Z,13.9
2016-11-23T12:34:26.887Z,14.07
2016-11-23T12:35:26.482Z,14.26
2016-11-23T12:36:26.895Z,14.3
2016-11-23T12:37:26.620Z,14.26
2016-11-23T12:38:26.291Z,14.12
2016-11-23T12:39:26.225Z,14.05
2016-11-23T12:40:27.098Z,13.85
2016-11-23T12:41:28.059Z,13.62
2016-11-23T12:42:26.402Z,13.53
2016-11-23T12:43:26.249Z,13.46
2016-11-23T12:44:26.640Z,13.49
2016-11-23T12:45:27.570Z,13.63
2016-11-23T12:46:26.502Z,13.77
2016-11-23T12:47:27.127Z,13.95
2016-11-23T12:48:26.312Z,14.15
2016-11-23T12:49:26.065Z,14.2
2016-11-23T12:50:26.053Z,14.37
2016-11-23T12:51:26.779Z,14.03
2016-11-23T12:52:26.689Z,13.97
2016-11-23T12:53:27.712Z,14.15
2016-11-23T12:54:26.873Z,14.48
2016-11-23T12:55:26.707Z,14.5
2016-11-23T12:56:27.759Z,14.58
2016-11-23T12:57:27.965Z,14.79
2016-11-23T12:58:27.622Z,14.89
2016-11-23T12:59:27.253Z,15.03
2016-11-23T13:00:26.508Z,15.24
2016-11-23T13:01:28.552Z,15.37
2016-11-23T13:02:27.411Z,15.7
2016-11-23T13:03:27.694Z,16
2016-11-23T13:04:27.129Z,16.01
2016-11-23T13:05:27.205Z,15.9
2016-11-23T13:06:27.016Z,15.7
2016-11-23T13:07:27.503Z,15.88
2016-11-23T13:08:28.826Z,15.68
2016-11-23T13:09:27.319Z,15.46
2016-11-23T13:10:26.854Z,15.58
2016-11-23T13:11:27.823Z,15.33
2016-11-23T13:12:28.667Z,15.51
2016-11-23T13:13:27.583Z,15.73
2016-11-23T13:14:26.933Z,15.54
2016-11-23T13:15:26.975Z,15.58
2016-11-23T13:16:27.425Z,15.62
2016-11-23T13:17:27.316Z,15.73
2016-11-23T13:18:27.570Z,15.86